Terminal Aerodrome Forecast
Issued by NWS

Home | Current Version | Previous Version | Text Only | Print | Product List | Glossary On
Versions: 1 2 3 4 5 6 7 8 9 10 11 12 13 14 15 16 17 18 19
000
FTUS44 KLZK 230500
TAFLIT
TAF
KLIT 230536Z 2306/2406 00000KT P6SM BKN250
     FM231300 07006KT P6SM SCT150 OVC250
     FM240000 00000KT P6SM SCT250=

USA.gov is the U.S. government's official web portal to all federal, state and local government web resources and services.